createdAt,value
2018-09-12T00:00:59.530Z,19.74
2018-09-12T00:01:59.291Z,19.71
2018-09-12T00:02:59.207Z,19.71
2018-09-12T00:03:59.202Z,19.72
2018-09-12T00:04:59.210Z,19.72
2018-09-12T00:05:59.246Z,19.71
2018-09-12T00:06:59.487Z,19.68
2018-09-12T00:07:59.033Z,19.65
2018-09-12T00:08:59.196Z,19.64
2018-09-12T00:09:59.291Z,19.62
2018-09-12T00:10:59.252Z,19.58
2018-09-12T00:11:59.256Z,19.57
2018-09-12T00:12:59.199Z,19.53
2018-09-12T00:13:59.237Z,19.49
2018-09-12T00:14:59.296Z,19.49
2018-09-12T00:15:59.253Z,19.5
2018-09-12T00:16:59.261Z,19.49
2018-09-12T00:17:59.370Z,19.47
2018-09-12T00:18:59.436Z,19.44
2018-09-12T00:19:59.222Z,19.44
2018-09-12T00:20:59.313Z,19.44
2018-09-12T00:21:59.303Z,19.42
2018-09-12T00:22:59.524Z,19.42
2018-09-12T00:23:59.842Z,19.36
2018-09-12T00:24:59.296Z,19.34
2018-09-12T00:25:59.559Z,19.29
2018-09-12T00:26:59.545Z,19.29
2018-09-12T00:27:59.567Z,19.29
2018-09-12T00:28:59.384Z,19.26
2018-09-12T00:29:59.472Z,19.25
2018-09-12T00:30:59.274Z,19.23
2018-09-12T00:31:59.585Z,19.21
2018-09-12T00:32:59.443Z,19.19
2018-09-12T00:33:59.306Z,19.19
2018-09-12T00:34:59.518Z,19.21
2018-09-12T00:35:59.270Z,19.22
2018-09-12T00:36:59.308Z,19.22
2018-09-12T00:37:59.540Z,19.21
2018-09-12T00:38:59.422Z,19.19
2018-09-12T00:39:59.263Z,19.13
2018-09-12T00:40:59.288Z,19.13
2018-09-12T00:41:59.247Z,19.13
2018-09-12T00:42:59.292Z,19.12
2018-09-12T00:43:59.319Z,19.1
2018-09-12T00:44:59.294Z,19.05
2018-09-12T00:45:59.215Z,19.03
2018-09-12T00:46:59.336Z,19.06
2018-09-12T00:47:59.586Z,19.08
2018-09-12T00:48:59.309Z,19.06
2018-09-12T00:49:59.271Z,19.06
2018-09-12T00:50:59.400Z,19.05
2018-09-12T00:51:59.383Z,19.08
2018-09-12T00:52:59.249Z,19.08
2018-09-12T00:53:59.430Z,19.09
2018-09-12T00:54:59.265Z,19.09
2018-09-12T00:55:59.254Z,19.08
2018-09-12T00:56:59.260Z,19.03
2018-09-12T00:57:59.252Z,19.01
2018-09-12T00:58:59.284Z,19.03
2018-09-12T00:59:59.357Z,19.01
2018-09-12T01:00:59.390Z,18.99
2018-09-12T01:01:59.280Z,19.01
2018-09-12T01:02:59.445Z,18.98
2018-09-12T01:03:59.340Z,18.95
2018-09-12T01:04:59.354Z,18.92
2018-09-12T01:05:59.440Z,18.91
2018-09-12T01:06:59.314Z,18.88
2018-09-12T01:07:59.390Z,18.88
2018-09-12T01:08:59.301Z,18.88
2018-09-12T01:09:59.272Z,18.85
2018-09-12T01:10:59.344Z,18.88
2018-09-12T01:11:59.577Z,18.87
2018-09-12T01:12:59.246Z,18.87
2018-09-12T01:13:59.312Z,18.82
2018-09-12T01:14:59.396Z,18.81
2018-09-12T01:15:59.306Z,18.75
2018-09-12T01:16:59.433Z,18.75
2018-09-12T01:17:59.312Z,18.74
2018-09-12T01:18:59.101Z,18.7
2018-09-12T01:19:59.444Z,18.71
2018-09-12T01:20:59.228Z,18.68
2018-09-12T01:21:59.337Z,18.66
2018-09-12T01:22:59.323Z,18.68
2018-09-12T01:23:59.340Z,18.67
2018-09-12T01:24:59.314Z,18.64
2018-09-12T01:25:59.263Z,18.66
2018-09-12T01:26:59.347Z,18.64
2018-09-12T01:27:59.276Z,18.63
2018-09-12T01:28:59.272Z,18.63
2018-09-12T01:29:59.292Z,18.61
2018-09-12T01:30:59.334Z,18.6
2018-09-12T01:31:59.276Z,18.61
2018-09-12T01:32:59.583Z,18.6
2018-09-12T01:33:59.259Z,18.6
2018-09-12T01:34:59.341Z,18.6
2018-09-12T01:35:59.528Z,18.64
2018-09-12T01:36:59.339Z,18.64
2018-09-12T01:37:59.443Z,18.59
2018-09-12T01:38:59.288Z,18.59
2018-09-12T01:39:59.264Z,18.59
2018-09-12T01:40:59.495Z,18.57
2018-09-12T01:41:59.275Z,18.61
2018-09-12T01:42:59.649Z,18.61
2018-09-12T01:43:59.246Z,18.63
2018-09-12T01:44:59.355Z,18.6
2018-09-12T01:45:59.327Z,18.63
2018-09-12T01:46:59.704Z,18.61
2018-09-12T01:47:59.382Z,18.61
2018-09-12T01:48:59.594Z,18.6
2018-09-12T01:49:59.512Z,18.59
2018-09-12T01:50:59.560Z,18.59
2018-09-12T01:51:59.388Z,18.56
2018-09-12T01:52:59.605Z,18.57
2018-09-12T01:53:59.431Z,18.56
2018-09-12T01:54:59.452Z,18.56
2018-09-12T01:55:59.332Z,18.57
2018-09-12T01:56:59.304Z,18.57
2018-09-12T01:57:59.556Z,18.56
2018-09-12T01:58:59.376Z,18.53
2018-09-12T01:59:59.310Z,18.54
2018-09-12T02:00:59.332Z,18.53
2018-09-12T02:01:59.361Z,18.54
2018-09-12T02:02:59.370Z,18.54
2018-09-12T02:03:59.229Z,18.56
2018-09-12T02:04:59.147Z,18.53
2018-09-12T02:05:59.327Z,18.54
2018-09-12T02:06:59.321Z,18.53
2018-09-12T02:07:59.363Z,18.5
2018-09-12T02:08:59.649Z,18.5
2018-09-12T02:09:59.315Z,18.5
2018-09-12T02:10:59.339Z,18.5
2018-09-12T02:11:59.326Z,18.52
2018-09-12T02:12:59.342Z,18.5
2018-09-12T02:13:59.317Z,18.47
2018-09-12T02:14:59.292Z,18.47
2018-09-12T02:15:59.340Z,18.49
2018-09-12T02:16:59.370Z,18.49
2018-09-12T02:17:59.296Z,18.49
2018-09-12T02:18:59.411Z,18.44
2018-09-12T02:19:59.462Z,18.43
2018-09-12T02:20:59.428Z,18.43
2018-09-12T02:21:59.620Z,18.42
2018-09-12T02:22:59.506Z,18.37
2018-09-12T02:23:59.530Z,18.39
2018-09-12T02:24:59.445Z,18.35
2018-09-12T02:25:59.421Z,18.33
2018-09-12T02:26:59.428Z,18.3
2018-09-12T02:27:59.374Z,18.29
2018-09-12T02:28:59.657Z,18.26
2018-09-12T02:29:59.356Z,18.25
2018-09-12T02:30:59.290Z,18.26
2018-09-12T02:31:59.504Z,18.25
2018-09-12T02:32:59.381Z,18.23
2018-09-12T02:33:59.668Z,18.23
2018-09-12T02:34:59.328Z,18.26
2018-09-12T02:35:59.326Z,18.23
2018-09-12T02:36:59.539Z,18.19
2018-09-12T02:37:59.429Z,18.13
2018-09-12T02:38:59.729Z,18.16
2018-09-12T02:39:59.213Z,18.13
2018-09-12T02:40:59.393Z,18.11
2018-09-12T02:41:59.290Z,18.11
2018-09-12T02:42:59.785Z,18.04
2018-09-12T02:43:59.378Z,18.02
2018-09-12T02:44:59.405Z,18.04
2018-09-12T02:45:59.728Z,18.01
2018-09-12T02:46:59.350Z,18.02
2018-09-12T02:47:59.486Z,17.99
2018-09-12T02:48:59.401Z,17.97
2018-09-12T02:49:59.305Z,17.95
2018-09-12T02:50:59.501Z,17.92
2018-09-12T02:51:59.507Z,17.92
2018-09-12T02:52:59.339Z,17.88
2018-09-12T02:53:59.345Z,17.85
2018-09-12T02:54:59.391Z,17.85
2018-09-12T02:55:59.358Z,17.87
2018-09-12T02:56:59.411Z,17.85
2018-09-12T02:57:59.475Z,17.81
2018-09-12T02:58:59.356Z,17.81
2018-09-12T02:59:59.503Z,17.82
2018-09-12T03:00:59.617Z,17.81
2018-09-12T03:01:59.388Z,17.78
2018-09-12T03:02:59.406Z,17.77
2018-09-12T03:03:59.801Z,17.77
2018-09-12T03:04:59.586Z,17.76
2018-09-12T03:05:59.521Z,17.77
2018-09-12T03:06:59.332Z,17.74
2018-09-12T03:07:59.750Z,17.74
2018-09-12T03:08:59.324Z,17.76
2018-09-12T03:09:59.345Z,17.71
2018-09-12T03:10:59.647Z,17.7
2018-09-12T03:11:59.409Z,17.69
2018-09-12T03:12:59.335Z,17.67
2018-09-12T03:13:59.324Z,17.66
2018-09-12T03:14:59.377Z,17.66
2018-09-12T03:15:59.441Z,17.66
2018-09-12T03:16:59.347Z,17.67
2018-09-12T03:17:59.348Z,17.63
2018-09-12T03:18:59.849Z,17.64
2018-09-12T03:19:59.525Z,17.61
2018-09-12T03:21:00.426Z,17.6
2018-09-12T03:21:59.612Z,17.58
2018-09-12T03:22:59.354Z,17.56
2018-09-12T03:23:59.455Z,17.6
2018-09-12T03:24:59.365Z,17.57
2018-09-12T03:25:59.360Z,17.57
2018-09-12T03:26:59.369Z,17.52
2018-09-12T03:27:59.495Z,17.53
2018-09-12T03:28:59.408Z,17.47
2018-09-12T03:29:59.787Z,17.49
2018-09-12T03:30:59.428Z,17.49
2018-09-12T03:31:59.508Z,17.44
2018-09-12T03:32:59.454Z,17.44
2018-09-12T03:33:59.467Z,17.42
2018-09-12T03:34:59.570Z,17.42
2018-09-12T03:35:59.739Z,17.42
2018-09-12T03:36:59.337Z,17.4
2018-09-12T03:37:59.442Z,17.4
2018-09-12T03:38:59.352Z,17.42
2018-09-12T03:39:59.603Z,17.4
2018-09-12T03:40:59.556Z,17.43
2018-09-12T03:41:59.336Z,17.4
2018-09-12T03:42:59.347Z,17.4
2018-09-12T03:43:59.288Z,17.37
2018-09-12T03:44:59.532Z,17.37
2018-09-12T03:45:59.439Z,17.37
2018-09-12T03:46:59.380Z,17.35
2018-09-12T03:48:00.133Z,17.36
2018-09-12T03:48:59.244Z,17.35
2018-09-12T03:49:59.363Z,17.35
2018-09-12T03:50:59.401Z,17.33
2018-09-12T03:51:59.846Z,17.32
2018-09-12T03:52:59.664Z,17.29
2018-09-12T03:53:59.459Z,17.27
2018-09-12T03:54:59.468Z,17.26
2018-09-12T03:55:59.361Z,17.26
2018-09-12T03:56:59.378Z,17.25
2018-09-12T03:57:59.375Z,17.23
2018-09-12T03:58:59.603Z,17.25
2018-09-12T03:59:59.420Z,17.27
2018-09-12T04:00:59.375Z,17.23
2018-09-12T04:01:59.434Z,17.22
2018-09-12T04:02:59.410Z,17.23
2018-09-12T04:03:59.754Z,17.22
2018-09-12T04:04:59.691Z,17.19
2018-09-12T04:05:59.432Z,17.16
2018-09-12T04:06:59.416Z,17.16
2018-09-12T04:07:59.517Z,17.16
2018-09-12T04:08:59.411Z,17.15
2018-09-12T04:09:59.437Z,17.14
2018-09-12T04:10:59.362Z,17.12
2018-09-12T04:11:59.370Z,17.12
2018-09-12T04:12:59.376Z,17.11
2018-09-12T04:13:59.472Z,17.12
2018-09-12T04:14:59.407Z,17.11
2018-09-12T04:15:59.387Z,17.08
2018-09-12T04:17:01.588Z,17.09
2018-09-12T04:17:59.399Z,17.12
2018-09-12T04:18:59.409Z,17.09
2018-09-12T04:19:59.453Z,17.09
2018-09-12T04:20:59.366Z,17.07
2018-09-12T04:21:59.439Z,17.05
2018-09-12T04:22:59.420Z,17.05
2018-09-12T04:23:59.429Z,16.99
2018-09-12T04:24:59.628Z,17.01
2018-09-12T04:25:59.483Z,16.97
2018-09-12T04:26:59.615Z,16.99
2018-09-12T04:27:59.452Z,16.97
2018-09-12T04:28:59.598Z,16.95
2018-09-12T04:29:59.480Z,16.97
2018-09-12T04:30:59.687Z,16.94
2018-09-12T04:31:59.452Z,16.92
2018-09-12T04:32:59.757Z,16.91
2018-09-12T04:33:59.437Z,16.91
2018-09-12T04:34:59.731Z,16.9
2018-09-12T04:35:59.462Z,16.9
2018-09-12T04:36:59.663Z,16.88
2018-09-12T04:37:59.387Z,16.9
2018-09-12T04:38:59.759Z,16.87
2018-09-12T04:39:59.765Z,16.87
2018-09-12T04:40:59.484Z,16.88
2018-09-12T04:42:00.292Z,16.87
2018-09-12T04:42:59.437Z,16.83
2018-09-12T04:43:59.619Z,16.83
2018-09-12T04:44:59.476Z,16.86
2018-09-12T04:45:59.763Z,16.83
2018-09-12T04:46:59.600Z,16.83
2018-09-12T04:47:59.463Z,16.81
2018-09-12T04:48:59.475Z,16.81
2018-09-12T04:49:59.487Z,16.83
2018-09-12T04:50:59.544Z,16.8
2018-09-12T04:51:59.556Z,16.8
2018-09-12T04:52:59.415Z,16.8
2018-09-12T04:53:59.757Z,16.8
2018-09-12T04:54:59.804Z,16.81
2018-09-12T04:55:59.311Z,16.8
2018-09-12T04:56:59.409Z,16.78
2018-09-12T04:57:59.965Z,16.8
2018-09-12T04:58:59.566Z,16.75
2018-09-12T04:59:59.441Z,16.78
2018-09-12T05:00:59.476Z,16.74
2018-09-12T05:02:00.019Z,16.73
2018-09-12T05:02:59.483Z,16.75
2018-09-12T05:03:59.450Z,16.73
2018-09-12T05:04:59.512Z,16.74
2018-09-12T05:05:59.519Z,16.74
2018-09-12T05:06:59.466Z,16.74
2018-09-12T05:07:59.401Z,16.74
2018-09-12T05:08:59.558Z,16.74
2018-09-12T05:09:59.493Z,16.7
2018-09-12T05:10:59.588Z,16.71
2018-09-12T05:11:59.473Z,16.7
2018-09-12T05:12:59.508Z,16.7
2018-09-12T05:13:59.434Z,16.67
2018-09-12T05:14:59.478Z,16.64
2018-09-12T05:15:59.797Z,16.62
2018-09-12T05:16:59.557Z,16.62
2018-09-12T05:17:59.422Z,16.6
2018-09-12T05:18:59.507Z,16.63
2018-09-12T05:19:59.569Z,16.63
2018-09-12T05:20:59.421Z,16.64
2018-09-12T05:21:59.438Z,16.63
2018-09-12T05:22:59.445Z,16.66
2018-09-12T05:23:59.441Z,16.66
2018-09-12T05:24:59.491Z,16.66
2018-09-12T05:25:59.742Z,16.63
2018-09-12T05:26:59.616Z,16.63
2018-09-12T05:27:59.668Z,16.63
2018-09-12T05:28:59.496Z,16.66
2018-09-12T05:29:59.830Z,16.64
2018-09-12T05:30:59.455Z,16.66
2018-09-12T05:31:59.672Z,16.66
2018-09-12T05:32:59.222Z,16.66
2018-09-12T05:33:59.504Z,16.66
2018-09-12T05:34:59.640Z,16.66
2018-09-12T05:35:59.652Z,16.67
2018-09-12T05:36:59.534Z,16.66
2018-09-12T05:37:59.459Z,16.68
2018-09-12T05:38:59.667Z,16.67
2018-09-12T05:39:59.408Z,16.63
2018-09-12T05:40:59.475Z,16.62
2018-09-12T05:41:59.532Z,16.64
2018-09-12T05:42:59.494Z,16.63
2018-09-12T05:43:59.459Z,16.64
2018-09-12T05:44:59.503Z,16.64
2018-09-12T05:45:59.717Z,16.64
2018-09-12T05:46:59.510Z,16.67
2018-09-12T05:47:59.462Z,16.68
2018-09-12T05:49:06.455Z,16.7
2018-09-12T05:50:00.527Z,16.71
2018-09-12T05:51:01.033Z,16.7
2018-09-12T05:51:59.560Z,16.74
2018-09-12T05:52:59.710Z,16.7
2018-09-12T05:53:59.486Z,16.7
2018-09-12T05:54:59.475Z,16.7
2018-09-12T05:55:59.756Z,16.74
2018-09-12T05:56:59.473Z,16.74
2018-09-12T05:57:59.686Z,16.75
2018-09-12T05:58:59.413Z,16.75
2018-09-12T05:59:59.437Z,16.75
2018-09-12T06:00:59.444Z,16.77
2018-09-12T06:01:59.700Z,16.77
2018-09-12T06:02:59.528Z,16.78
2018-09-12T06:03:59.507Z,16.77
2018-09-12T06:04:59.761Z,16.78
2018-09-12T06:05:59.627Z,16.81
2018-09-12T06:07:00.307Z,16.8
2018-09-12T06:07:59.560Z,16.81
2018-09-12T06:08:59.728Z,16.84
2018-09-12T06:09:59.629Z,16.83
2018-09-12T06:10:59.480Z,16.86
2018-09-12T06:11:59.669Z,16.87
2018-09-12T06:12:59.688Z,16.88
2018-09-12T06:13:59.663Z,16.9
2018-09-12T06:14:59.459Z,16.92
2018-09-12T06:15:59.569Z,16.95
2018-09-12T06:16:59.449Z,16.97
2018-09-12T06:17:59.508Z,16.95
2018-09-12T06:18:59.465Z,16.97
2018-09-12T06:19:59.539Z,16.99
2018-09-12T06:20:59.466Z,17.02
2018-09-12T06:21:59.747Z,17.02
2018-09-12T06:22:59.568Z,17.07
2018-09-12T06:23:59.643Z,17.09
2018-09-12T06:24:59.276Z,17.09
2018-09-12T06:25:59.751Z,17.15
2018-09-12T06:26:59.593Z,17.15
2018-09-12T06:27:59.645Z,17.18
2018-09-12T06:28:59.527Z,17.21
2018-09-12T06:29:59.536Z,17.23
2018-09-12T06:30:59.539Z,17.26
2018-09-12T06:31:59.465Z,17.29
2018-09-12T06:32:59.441Z,17.32
2018-09-12T06:33:59.614Z,17.37
2018-09-12T06:34:59.568Z,17.37
2018-09-12T06:35:59.489Z,17.42
2018-09-12T06:36:59.560Z,17.42
2018-09-12T06:37:59.486Z,17.44
2018-09-12T06:38:59.394Z,17.47
2018-09-12T06:39:59.580Z,17.5
2018-09-12T06:40:59.494Z,17.53
2018-09-12T06:41:59.609Z,17.56
2018-09-12T06:42:59.770Z,17.61
2018-09-12T06:43:59.531Z,17.63
2018-09-12T06:44:59.440Z,17.67
2018-09-12T06:45:59.517Z,17.7
2018-09-12T06:46:59.650Z,17.74
2018-09-12T06:48:00.451Z,17.78
2018-09-12T06:48:59.664Z,17.8
2018-09-12T06:49:59.544Z,17.82
2018-09-12T06:50:59.471Z,17.85
2018-09-12T06:51:59.583Z,17.89
2018-09-12T06:52:59.537Z,17.94
2018-09-12T06:53:59.512Z,17.94
2018-09-12T06:54:59.545Z,17.99
2018-09-12T06:55:59.490Z,18.02
2018-09-12T06:56:59.517Z,18.04
2018-09-12T06:57:59.475Z,18.09
2018-09-12T06:58:59.611Z,18.12
2018-09-12T06:59:59.590Z,18.13
2018-09-12T07:00:59.821Z,18.17
2018-09-12T07:01:59.579Z,18.22
2018-09-12T07:02:59.547Z,18.23
2018-09-12T07:03:59.590Z,18.3
2018-09-12T07:04:59.560Z,18.32
2018-09-12T07:05:59.600Z,18.4
2018-09-12T07:06:59.467Z,18.42
2018-09-12T07:07:59.738Z,18.46
2018-09-12T07:08:59.623Z,18.5
2018-09-12T07:09:59.581Z,18.54
2018-09-12T07:10:59.593Z,18.57
2018-09-12T07:11:59.707Z,18.64
2018-09-12T07:12:59.626Z,18.67
2018-09-12T07:13:59.638Z,18.68
2018-09-12T07:15:00.395Z,18.71
2018-09-12T07:15:59.999Z,18.78
2018-09-12T07:16:59.327Z,18.81
2018-09-12T07:17:59.649Z,18.87
2018-09-12T07:18:59.630Z,18.88
2018-09-12T07:19:59.925Z,18.94
2018-09-12T07:20:59.482Z,18.97
2018-09-12T07:21:59.738Z,18.99
2018-09-12T07:22:59.605Z,19.03
2018-09-12T07:23:59.779Z,19.08
2018-09-12T07:24:59.483Z,19.09
2018-09-12T07:25:59.518Z,19.16
2018-09-12T07:26:59.646Z,19.19
2018-09-12T07:27:59.573Z,19.22
2018-09-12T07:28:59.553Z,19.25
2018-09-12T07:29:59.534Z,19.32
2018-09-12T07:30:59.514Z,19.33
2018-09-12T07:31:59.655Z,19.37
2018-09-12T07:32:59.643Z,19.36
2018-09-12T07:33:59.647Z,19.42
2018-09-12T07:34:59.679Z,19.46
2018-09-12T07:35:59.516Z,19.46
2018-09-12T07:36:59.656Z,19.51
2018-09-12T07:37:59.583Z,19.54
2018-09-12T07:38:59.576Z,19.58
2018-09-12T07:39:59.617Z,19.62
2018-09-12T07:40:59.819Z,19.65
2018-09-12T07:41:59.594Z,19.71
2018-09-12T07:42:59.989Z,19.75
2018-09-12T07:43:59.536Z,19.78
2018-09-12T07:44:59.605Z,19.82
2018-09-12T07:45:59.559Z,19.86
2018-09-12T07:47:00.015Z,19.86
2018-09-12T07:48:00.125Z,19.91
2018-09-12T07:48:59.728Z,19.96
2018-09-12T07:49:59.690Z,19.98
2018-09-12T07:50:59.589Z,20.01
2018-09-12T07:51:59.678Z,20.04
2018-09-12T07:52:59.491Z,20.06
2018-09-12T07:53:59.519Z,20.06
2018-09-12T07:54:59.640Z,20.09
2018-09-12T07:55:59.823Z,20.15
2018-09-12T07:57:00.186Z,20.2
2018-09-12T07:57:59.682Z,20.22
2018-09-12T07:58:59.697Z,20.27
2018-09-12T07:59:59.834Z,20.3
2018-09-12T08:00:59.753Z,20.34
2018-09-12T08:01:59.597Z,20.4
2018-09-12T08:02:59.777Z,20.44
2018-09-12T08:03:59.579Z,20.48
2018-09-12T08:05:00.066Z,20.46
2018-09-12T08:05:59.743Z,20.52
2018-09-12T08:06:59.587Z,20.55
2018-09-12T08:07:59.621Z,20.6
2018-09-12T08:08:59.759Z,20.62
2018-09-12T08:09:59.572Z,20.67
2018-09-12T08:10:59.555Z,20.71
2018-09-12T08:11:59.633Z,20.74
2018-09-12T08:12:59.574Z,20.75
2018-09-12T08:13:59.513Z,20.78
2018-09-12T08:14:59.608Z,20.85
2018-09-12T08:15:59.687Z,20.85
2018-09-12T08:16:59.883Z,20.89
2018-09-12T08:17:59.691Z,20.91
2018-09-12T08:18:59.788Z,20.95
2018-09-12T08:19:59.885Z,20.96
2018-09-12T08:20:59.515Z,21.01
2018-09-12T08:21:59.561Z,21.05
2018-09-12T08:23:00.062Z,21.05
2018-09-12T08:23:59.713Z,21.12
2018-09-12T08:24:59.587Z,21.12
2018-09-12T08:25:59.585Z,21.09
2018-09-12T08:26:59.622Z,21.13
2018-09-12T08:27:59.614Z,21.17
2018-09-12T08:28:59.646Z,21.22
2018-09-12T08:29:59.723Z,21.27
2018-09-12T08:30:59.606Z,21.22
2018-09-12T08:31:59.700Z,21.22
2018-09-12T08:32:59.565Z,21.23
2018-09-12T08:33:59.594Z,21.27
2018-09-12T08:34:59.658Z,21.34
2018-09-12T08:35:59.584Z,21.41
2018-09-12T08:36:59.877Z,21.44
2018-09-12T08:37:59.599Z,21.51
2018-09-12T08:38:59.579Z,21.57
2018-09-12T08:40:00.208Z,21.6
2018-09-12T08:41:00.287Z,21.68
2018-09-12T08:41:59.658Z,21.71
2018-09-12T08:42:59.656Z,21.74
2018-09-12T08:43:59.615Z,21.75
2018-09-12T08:44:59.800Z,21.79
2018-09-12T08:45:59.848Z,21.82
2018-09-12T08:46:59.922Z,21.88
2018-09-12T08:47:59.633Z,21.95
2018-09-12T08:48:59.684Z,21.98
2018-09-12T08:49:59.564Z,22.15
2018-09-12T08:50:59.679Z,22.16
2018-09-12T08:51:59.692Z,22.15
2018-09-12T08:52:59.937Z,22.2
2018-09-12T08:54:00.094Z,22.22
2018-09-12T08:54:59.771Z,22.27
2018-09-12T08:55:59.813Z,22.29
2018-09-12T08:56:59.751Z,22.31
2018-09-12T08:57:59.573Z,22.4
2018-09-12T08:58:59.564Z,22.44
2018-09-12T08:59:59.691Z,22.46
2018-09-12T09:00:59.632Z,22.48
2018-09-12T09:01:59.804Z,22.53
2018-09-12T09:02:59.662Z,22.54
2018-09-12T09:03:59.682Z,22.64
2018-09-12T09:04:59.625Z,22.58
2018-09-12T09:05:59.590Z,22.63
2018-09-12T09:06:59.627Z,22.7
2018-09-12T09:07:59.767Z,22.68
2018-09-12T09:08:59.718Z,22.7
2018-09-12T09:09:59.618Z,22.74
2018-09-12T09:10:59.420Z,22.82
2018-09-12T09:11:59.706Z,22.86
2018-09-12T09:12:59.678Z,22.86
2018-09-12T09:13:59.593Z,22.92
2018-09-12T09:14:59.642Z,22.91
2018-09-12T09:15:59.642Z,22.89
2018-09-12T09:16:59.809Z,22.86
2018-09-12T09:17:59.869Z,22.94
2018-09-12T09:18:59.649Z,22.99
2018-09-12T09:19:59.674Z,23.05
2018-09-12T09:20:59.837Z,23.11
2018-09-12T09:21:59.850Z,23.11
2018-09-12T09:22:59.674Z,23.16
2018-09-12T09:23:59.600Z,23.26
2018-09-12T09:24:59.625Z,23.27
2018-09-12T09:25:59.686Z,23.37
2018-09-12T09:26:59.566Z,23.41
2018-09-12T09:27:59.749Z,23.5
2018-09-12T09:29:00.101Z,23.53
2018-09-12T09:29:59.845Z,23.56
2018-09-12T09:30:59.693Z,23.56
2018-09-12T09:31:59.635Z,23.56
2018-09-12T09:32:59.641Z,23.6
2018-09-12T09:33:59.638Z,23.71
2018-09-12T09:35:00.435Z,23.8
2018-09-12T09:35:59.508Z,23.82
2018-09-12T09:36:59.711Z,23.92
2018-09-12T09:37:59.860Z,23.91
2018-09-12T09:38:59.713Z,23.98
2018-09-12T09:39:59.952Z,23.99
2018-09-12T09:40:59.674Z,24.09
2018-09-12T09:41:59.705Z,24.09
2018-09-12T09:42:59.620Z,24.13
2018-09-12T09:43:59.771Z,24.17
2018-09-12T09:44:59.703Z,24.26
2018-09-12T09:45:59.660Z,24.26
2018-09-12T09:46:59.653Z,24.27
2018-09-12T09:47:59.958Z,24.35
2018-09-12T09:48:59.653Z,24.39
2018-09-12T09:49:59.685Z,24.37
2018-09-12T09:50:59.689Z,24.39
2018-09-12T09:51:59.661Z,24.46
2018-09-12T09:52:59.564Z,24.53
2018-09-12T09:53:59.678Z,24.54
2018-09-12T09:54:59.795Z,24.55
2018-09-12T09:55:59.817Z,24.72
2018-09-12T09:56:59.619Z,24.67
2018-09-12T09:57:59.712Z,24.72
2018-09-12T09:58:59.708Z,24.78
2018-09-12T09:59:59.905Z,24.85
2018-09-12T10:00:59.711Z,24.82
2018-09-12T10:01:59.743Z,24.92
2018-09-12T10:02:59.722Z,24.97
2018-09-12T10:03:59.724Z,24.98
2018-09-12T10:04:59.694Z,25.06
2018-09-12T10:06:00.011Z,25.08
2018-09-12T10:06:59.712Z,25.1
2018-09-12T10:07:59.871Z,25.12
2018-09-12T10:08:59.763Z,25.19
2018-09-12T10:09:59.651Z,25.2
2018-09-12T10:10:59.802Z,25.27
2018-09-12T10:11:59.940Z,25.34
2018-09-12T10:12:59.667Z,25.38
2018-09-12T10:14:00.206Z,25.4
2018-09-12T10:14:59.692Z,25.5
2018-09-12T10:15:59.495Z,25.5
2018-09-12T10:17:00.124Z,25.51
2018-09-12T10:17:59.707Z,25.61
2018-09-12T10:18:59.688Z,25.64
2018-09-12T10:20:00.018Z,25.81
2018-09-12T10:20:59.666Z,25.84
2018-09-12T10:21:59.751Z,25.88
2018-09-12T10:22:59.833Z,25.91
2018-09-12T10:23:59.591Z,26.06
2018-09-12T10:25:00.072Z,26.13
2018-09-12T10:25:59.623Z,26.09
2018-09-12T10:26:59.714Z,26.15
2018-09-12T10:27:59.855Z,26.16
2018-09-12T10:28:59.739Z,26.25
2018-09-12T10:29:59.796Z,26.2
2018-09-12T10:30:59.638Z,26.22
2018-09-12T10:31:59.663Z,26.3
2018-09-12T10:32:59.709Z,26.33
2018-09-12T10:33:59.639Z,26.39
2018-09-12T10:34:59.762Z,26.44
2018-09-12T10:35:59.657Z,26.44
2018-09-12T10:36:59.730Z,26.48
2018-09-12T10:38:00.098Z,26.61
2018-09-12T10:39:00.106Z,26.67
2018-09-12T10:40:00.291Z,26.67
2018-09-12T10:40:59.842Z,26.71
2018-09-12T10:41:59.762Z,26.78
2018-09-12T10:42:59.709Z,26.81
2018-09-12T10:43:59.774Z,26.78
2018-09-12T10:44:59.755Z,26.81
2018-09-12T10:45:59.687Z,26.79
2018-09-12T10:46:59.641Z,26.82
2018-09-12T10:47:59.628Z,26.81
2018-09-12T10:48:59.655Z,26.87
2018-09-12T10:49:59.697Z,26.88
2018-09-12T10:50:59.691Z,26.91
2018-09-12T10:51:59.634Z,26.95
2018-09-12T10:52:59.714Z,27.02
2018-09-12T10:53:59.644Z,27.05
2018-09-12T10:54:59.787Z,27.2
2018-09-12T10:55:59.812Z,27.3
2018-09-12T10:56:59.717Z,27.3
2018-09-12T10:57:59.678Z,27.33
2018-09-12T10:58:59.906Z,27.34
2018-09-12T10:59:59.673Z,27.34
2018-09-12T11:00:59.596Z,27.32
2018-09-12T11:01:59.829Z,27.33
2018-09-12T11:02:59.721Z,27.4
2018-09-12T11:03:59.867Z,27.49
2018-09-12T11:04:59.836Z,27.57
2018-09-12T11:05:59.846Z,27.56
2018-09-12T11:06:59.871Z,27.58
2018-09-12T11:07:59.761Z,27.64
2018-09-12T11:08:59.791Z,27.62
2018-09-12T11:09:59.910Z,27.62
2018-09-12T11:10:59.676Z,27.64
2018-09-12T11:11:59.785Z,27.75
2018-09-12T11:12:59.789Z,27.84
2018-09-12T11:13:59.797Z,27.79
2018-09-12T11:14:59.790Z,27.85
2018-09-12T11:15:59.801Z,27.92
2018-09-12T11:16:59.810Z,27.88
2018-09-12T11:17:59.729Z,27.89
2018-09-12T11:19:00.058Z,27.93
2018-09-12T11:19:59.942Z,27.99
2018-09-12T11:20:59.843Z,28.01
2018-09-12T11:22:00.264Z,28.01
2018-09-12T11:23:00.473Z,28.04
2018-09-12T11:23:59.955Z,28.11
2018-09-12T11:24:59.688Z,28.15
2018-09-12T11:26:00.811Z,28.16
2018-09-12T11:26:59.886Z,28.24
2018-09-12T11:28:00.004Z,28.22
2018-09-12T11:28:59.772Z,28.22
2018-09-12T11:29:59.971Z,28.27
2018-09-12T11:30:59.709Z,28.3
2018-09-12T11:31:59.819Z,28.3
2018-09-12T11:32:59.661Z,28.34
2018-09-12T11:33:59.737Z,28.36
2018-09-12T11:34:59.726Z,28.39
2018-09-12T11:35:59.915Z,28.46
2018-09-12T11:36:59.958Z,28.47
2018-09-12T11:37:59.851Z,28.51
2018-09-12T11:38:59.775Z,28.54
2018-09-12T11:39:59.914Z,28.48
2018-09-12T11:40:59.612Z,28.51
2018-09-12T11:42:00.103Z,28.51
2018-09-12T11:42:59.690Z,28.5
2018-09-12T11:44:00.124Z,28.57
2018-09-12T11:45:00.177Z,28.66
2018-09-12T11:45:59.798Z,28.66
2018-09-12T11:46:59.824Z,28.66
2018-09-12T11:47:59.757Z,28.67
2018-09-12T11:48:59.915Z,28.68
2018-09-12T11:50:00.262Z,28.78
2018-09-12T11:51:00.080Z,28.79
2018-09-12T11:51:59.914Z,28.78
2018-09-12T11:52:59.838Z,28.88
2018-09-12T11:53:59.862Z,28.88
2018-09-12T11:54:59.783Z,28.92
2018-09-12T11:55:59.737Z,28.88
2018-09-12T11:56:59.815Z,28.88
2018-09-12T11:57:59.887Z,28.91
2018-09-12T11:58:59.718Z,28.94
2018-09-12T12:00:00.024Z,28.98
2018-09-12T12:00:59.874Z,28.99
2018-09-12T12:01:59.895Z,29.01
2018-09-12T12:02:59.724Z,29.05
2018-09-12T12:03:59.773Z,29.2
2018-09-12T12:05:00.356Z,29.23
2018-09-12T12:05:59.801Z,29.25
2018-09-12T12:06:59.752Z,29.3
2018-09-12T12:07:59.867Z,29.39
2018-09-12T12:08:59.728Z,29.33
2018-09-12T12:09:59.885Z,29.46
2018-09-12T12:10:59.968Z,29.39
2018-09-12T12:11:59.776Z,29.34
2018-09-12T12:12:59.945Z,29.34
2018-09-12T12:13:59.875Z,29.3
2018-09-12T12:14:59.875Z,29.3
2018-09-12T12:15:59.812Z,29.32
2018-09-12T12:16:59.611Z,29.37
2018-09-12T12:17:59.755Z,29.36
2018-09-12T12:18:59.776Z,29.33
2018-09-12T12:19:59.784Z,29.32
2018-09-12T12:20:59.698Z,29.4
2018-09-12T12:21:59.947Z,29.3
2018-09-12T12:23:00.107Z,29.33
2018-09-12T12:24:00.802Z,29.32
2018-09-12T12:24:59.792Z,29.39
2018-09-12T12:25:59.761Z,29.37
2018-09-12T12:26:59.780Z,29.34
2018-09-12T12:27:59.979Z,29.33
2018-09-12T12:28:59.831Z,29.37
2018-09-12T12:29:59.885Z,29.39
2018-09-12T12:31:00.127Z,29.4
2018-09-12T12:31:59.736Z,29.47
2018-09-12T12:32:59.961Z,29.46
2018-09-12T12:33:59.773Z,29.48
2018-09-12T12:34:59.852Z,29.46
2018-09-12T12:35:59.738Z,29.47
2018-09-12T12:36:59.852Z,29.47
2018-09-12T12:37:59.990Z,29.54
2018-09-12T12:38:59.871Z,29.5
2018-09-12T12:39:59.882Z,29.5
2018-09-12T12:41:00.018Z,29.53
2018-09-12T12:42:00.192Z,29.64
2018-09-12T12:42:59.762Z,29.64
2018-09-12T12:43:59.744Z,29.6
2018-09-12T12:45:00.048Z,29.64
2018-09-12T12:46:00.229Z,29.63
2018-09-12T12:46:59.751Z,29.68
2018-09-12T12:47:59.713Z,29.72
2018-09-12T12:48:59.756Z,29.68
2018-09-12T12:50:00.251Z,29.74
2018-09-12T12:50:59.770Z,29.72
2018-09-12T12:51:59.893Z,29.72
2018-09-12T12:52:59.727Z,29.67
2018-09-12T12:54:00.183Z,29.74
2018-09-12T12:54:59.849Z,29.74
2018-09-12T12:55:59.814Z,29.74